Time;durP1;ratioP1;P1;durP2;ratioP2;P2;SDS_P1;SDS_P2;PMS_P1;PMS_P2;Temp;Humidity;BMP_temperature;BMP_pressure;BME280_temperature;BME280_humidity;BME280_pressure;Samples;Min_cycle;Max_cycle;Signal;HPM_P1;HPM_P2
2021/12/29 00:02:06;;;;;;;16.20;6.35;;;6.90;99.90;;;;;;5033381;28;20033;-92
2021/12/29 00:04:32;;;;;;;11.63;5.13;;;6.90;99.90;;;;;;5033165;28;20037;-92
2021/12/29 00:06:59;;;;;;;6.43;4.97;;;6.90;99.90;;;;;;5032594;28;20022;-92
2021/12/29 00:09:24;;;;;;;12.23;5.68;;;6.90;99.90;;;;;;5033537;28;20031;-94
2021/12/29 00:11:52;;;;;;;16.55;6.20;;;6.90;99.90;;;;;;5033528;28;20116;-92
2021/12/29 00:14:18;;;;;;;8.18;4.88;;;6.90;99.90;;;;;;5037751;28;20025;-93
2021/12/29 00:16:43;;;;;;;12.05;5.68;;;6.90;99.90;;;;;;5038530;28;20036;-91
2021/12/29 00:19:09;;;;;;;19.65;13.02;;;6.90;99.90;;;;;;5037015;28;20029;-92
2021/12/29 00:21:37;;;;;;;27.33;14.30;;;6.90;99.90;;;;;;5038677;28;20041;-91
2021/12/29 00:24:05;;;;;;;20.70;12.50;;;6.90;99.90;;;;;;5038800;28;20052;-92
2021/12/29 00:26:32;;;;;;;19.83;10.95;;;6.90;99.90;;;;;;5045189;28;20093;-92
2021/12/29 00:29:00;;;;;;;22.42;10.88;;;6.90;99.90;;;;;;5055797;28;20030;-92
2021/12/29 00:31:31;;;;;;;26.85;15.50;;;6.90;99.90;;;;;;5056755;28;20108;-92
2021/12/29 00:33:58;;;;;;;16.95;9.45;;;6.80;99.90;;;;;;5044764;28;20041;-91
2021/12/29 00:36:24;;;;;;;12.80;7.05;;;6.80;99.90;;;;;;5038247;28;20037;-91
2021/12/29 00:38:50;;;;;;;13.45;8.13;;;6.80;99.90;;;;;;5036928;28;20018;-92
2021/12/29 00:41:17;;;;;;;25.75;15.05;;;6.80;99.90;;;;;;5034698;28;20027;-92
2021/12/29 00:43:44;;;;;;;33.03;15.20;;;6.80;99.90;;;;;;5036968;28;20076;-91
2021/12/29 00:46:12;;;;;;;24.63;14.93;;;6.80;99.90;;;;;;5035578;28;20032;-92
2021/12/29 00:48:41;;;;;;;22.83;12.25;;;6.80;99.90;;;;;;5037193;28;20121;-92
2021/12/29 00:51:08;;;;;;;32.30;15.77;;;6.80;99.90;;;;;;5039516;28;20053;-92
2021/12/29 00:53:34;;;;;;;24.70;14.95;;;6.70;99.90;;;;;;5033994;28;20057;-92
2021/12/29 00:56:00;;;;;;;17.02;10.45;;;6.70;99.90;;;;;;5032977;28;20505;-92
2021/12/29 00:58:26;;;;;;;16.23;10.32;;;6.70;99.90;;;;;;5033119;28;20067;-96
2021/12/29 01:00:53;;;;;;;16.13;10.05;;;6.60;99.90;;;;;;5033198;28;20080;-92
2021/12/29 01:03:19;;;;;;;19.83;11.20;;;6.60;99.90;;;;;;5033569;28;20032;-91
2021/12/29 01:05:45;;;;;;;15.27;9.52;;;6.60;99.90;;;;;;5033673;28;20033;-91
2021/12/29 01:08:11;;;;;;;16.08;10.07;;;6.50;99.90;;;;;;5038893;28;20025;-91
2021/12/29 01:10:38;;;;;;;21.77;10.98;;;6.50;99.90;;;;;;5039166;28;20030;-91
2021/12/29 01:13:07;;;;;;;20.80;10.98;;;6.40;99.90;;;;;;5039376;28;20033;-93
2021/12/29 01:15:47;;;;;;;17.10;10.15;;;6.40;99.90;;;;;;5037161;28;20025;-91
2021/12/29 01:18:12;;;;;;;29.42;13.02;;;6.30;99.90;;;;;;5034094;28;20033;-93
2021/12/29 01:20:39;;;;;;;21.02;12.05;;;6.30;99.90;;;;;;5037406;28;20029;-91
2021/12/29 01:23:04;;;;;;;21.30;11.90;;;6.30;99.90;;;;;;5037065;28;20112;-93
2021/12/29 01:25:31;;;;;;;19.40;12.50;;;6.30;99.90;;;;;;5037555;28;20072;-92
2021/12/29 01:27:57;;;;;;;20.85;10.77;;;6.20;99.90;;;;;;5037126;28;20034;-93
2021/12/29 01:30:23;;;;;;;17.42;10.10;;;6.20;99.90;;;;;;5037466;28;20042;-91
2021/12/29 01:32:48;;;;;;;16.38;9.90;;;6.10;99.90;;;;;;5037383;28;20131;-92
2021/12/29 01:35:14;;;;;;;18.35;10.43;;;6.10;99.90;;;;;;5037417;28;20032;-92
2021/12/29 01:37:40;;;;;;;19.45;11.95;;;6.10;99.90;;;;;;5037430;28;20021;-92
2021/12/29 01:40:11;;;;;;;19.00;9.75;;;6.10;99.90;;;;;;5036499;28;20052;-92
2021/12/29 01:42:37;;;;;;;15.48;9.63;;;6.00;99.90;;;;;;5036948;28;20061;-92
2021/12/29 01:45:04;;;;;;;17.40;10.00;;;6.00;99.90;;;;;;5037857;28;20030;-93
2021/12/29 01:47:31;;;;;;;17.55;9.82;;;6.00;99.90;;;;;;5037899;28;20032;-92
2021/12/29 01:50:00;;;;;;;19.30;10.05;;;6.00;99.90;;;;;;5037025;28;20045;-90
2021/12/29 01:52:29;;;;;;;13.90;9.35;;;6.00;99.90;;;;;;5037225;28;20041;-91
2021/12/29 01:54:55;;;;;;;17.60;10.00;;;5.90;99.90;;;;;;5036114;28;20018;-92
2021/12/29 01:57:21;;;;;;;13.43;8.73;;;6.00;99.90;;;;;;5036785;28;20025;-92
2021/12/29 01:59:47;;;;;;;17.05;8.80;;;5.90;99.90;;;;;;5036323;28;20489;-91
2021/12/29 02:02:14;;;;;;;15.48;9.30;;;5.90;99.90;;;;;;5036174;28;20022;-93
2021/12/29 02:04:41;;;;;;;17.45;9.13;;;5.90;99.90;;;;;;5037904;28;20040;-92
2021/12/29 02:07:09;;;;;;;16.10;8.85;;;5.90;99.90;;;;;;5042480;28;20018;-92
2021/12/29 02:09:35;;;;;;;16.25;8.50;;;5.90;99.90;;;;;;5037311;28;20049;-93
2021/12/29 02:12:01;;;;;;;14.30;8.50;;;5.90;99.90;;;;;;5035720;28;20026;-92
2021/12/29 02:14:27;;;;;;;13.75;7.43;;;5.90;99.90;;;;;;5039310;28;20025;-91
2021/12/29 02:16:53;;;;;;;15.88;8.30;;;5.90;99.90;;;;;;5036322;28;20112;-91
2021/12/29 02:19:19;;;;;;;13.48;8.32;;;5.90;99.90;;;;;;5035638;28;20035;-91
2021/12/29 02:21:54;;;;;;;20.45;7.65;;;5.90;99.90;;;;;;5038187;28;20083;-91
2021/12/29 02:24:23;;;;;;;15.07;6.85;;;5.90;99.90;;;;;;5036016;28;20040;-92
2021/12/29 02:26:50;;;;;;;15.10;7.00;;;5.90;99.90;;;;;;5035636;28;20112;-92
2021/12/29 02:29:18;;;;;;;12.27;7.15;;;6.00;99.90;;;;;;5035082;28;20062;-92
2021/12/29 02:31:45;;;;;;;14.52;6.97;;;6.00;99.90;;;;;;5034359;28;20033;-91
2021/12/29 02:34:14;;;;;;;15.88;7.22;;;6.00;99.90;;;;;;5035214;28;20109;-92
2021/12/29 02:36:43;;;;;;;11.43;6.63;;;5.90;99.90;;;;;;5035496;28;20025;-92
2021/12/29 02:39:30;;;;;;;14.30;7.17;;;6.00;99.90;;;;;;5040947;28;20103;-92
2021/12/29 02:41:56;;;;;;;11.27;6.70;;;5.90;99.90;;;;;;5037187;28;20475;-92
2021/12/29 02:44:27;;;;;;;10.30;6.55;;;5.90;99.90;;;;;;5035400;28;20029;-92
2021/12/29 02:46:58;;;;;;;11.57;7.10;;;5.90;99.90;;;;;;5035503;28;20022;-91
2021/12/29 02:49:25;;;;;;;10.90;6.70;;;5.90;99.90;;;;;;5035050;28;20052;-91
2021/12/29 02:52:04;;;;;;;10.43;7.03;;;5.80;99.90;;;;;;5034736;28;20490;-91
2021/12/29 02:54:30;;;;;;;14.57;6.28;;;5.70;99.90;;;;;;5034748;28;20028;-92
2021/12/29 02:56:56;;;;;;;10.45;6.28;;;5.70;99.90;;;;;;5034429;28;20021;-92
2021/12/29 02:59:23;;;;;;;15.55;7.00;;;5.60;99.90;;;;;;5034542;28;20112;-92
2021/12/29 03:01:49;;;;;;;10.60;6.47;;;5.60;99.90;;;;;;5040383;28;20035;-91
2021/12/29 03:04:18;;;;;;;17.83;7.13;;;5.60;99.90;;;;;;5040359;28;20030;-92
2021/12/29 03:06:44;;;;;;;15.60;8.40;;;5.50;99.90;;;;;;5040739;28;20025;-91
2021/12/29 03:09:12;;;;;;;14.98;8.07;;;5.60;99.90;;;;;;5040414;28;20136;-91
2021/12/29 03:11:40;;;;;;;12.45;7.07;;;5.50;99.90;;;;;;5037818;28;20416;-92
2021/12/29 03:14:06;;;;;;;9.05;6.43;;;5.50;99.90;;;;;;5040275;28;20056;-92
2021/12/29 03:16:33;;;;;;;12.77;7.53;;;5.50;99.90;;;;;;5040388;28;20025;-92
2021/12/29 03:18:59;;;;;;;14.13;7.78;;;5.40;99.90;;;;;;5040100;28;20025;-92
2021/12/29 03:21:25;;;;;;;14.63;7.53;;;5.40;99.90;;;;;;5040257;28;20031;-94
2021/12/29 03:23:51;;;;;;;12.27;7.00;;;5.40;99.90;;;;;;5038999;28;20029;-92
2021/12/29 03:26:17;;;;;;;12.98;6.93;;;5.40;99.90;;;;;;5039290;28;20044;-92
2021/12/29 03:28:43;;;;;;;12.48;8.27;;;5.40;99.90;;;;;;5039831;28;20038;-92
2021/12/29 03:31:14;;;;;;;17.73;8.57;;;5.40;99.90;;;;;;5039976;28;20509;-92
2021/12/29 03:33:41;;;;;;;;;;;5.40;99.90;;;;;;5040897;28;20104;-91
2021/12/29 03:36:07;;;;;;;14.88;8.25;;;5.40;99.90;;;;;;5040172;28;19904;-92
2021/12/29 03:38:35;;;;;;;16.60;8.15;;;5.40;99.90;;;;;;5040070;28;20021;-91
2021/12/29 03:41:04;;;;;;;11.93;7.28;;;5.40;99.90;;;;;;5039496;28;20049;-91
2021/12/29 03:43:32;;;;;;;16.08;8.48;;;5.40;99.90;;;;;;5038610;28;20034;-91
2021/12/29 03:45:59;;;;;;;12.30;8.30;;;5.40;99.90;;;;;;5034205;28;20030;-92
2021/12/29 03:48:26;;;;;;;14.15;7.53;;;5.40;99.90;;;;;;5033779;28;20034;-92
2021/12/29 03:50:53;;;;;;;13.98;7.60;;;5.40;99.90;;;;;;5033101;28;20060;-93
2021/12/29 03:53:19;;;;;;;13.98;8.18;;;5.40;99.90;;;;;;5033486;28;21402;-91
2021/12/29 03:55:48;;;;;;;23.45;9.93;;;5.40;99.90;;;;;;5035814;28;20101;-93
2021/12/29 03:58:14;;;;;;;12.25;7.70;;;5.40;99.90;;;;;;5035642;28;20025;-92
2021/12/29 04:00:40;;;;;;;16.67;8.38;;;5.30;99.90;;;;;;5033242;28;20110;-93
2021/12/29 04:03:05;;;;;;;19.10;8.27;;;5.30;99.90;;;;;;5033053;28;20075;-93
2021/12/29 04:05:33;;;;;;;15.25;8.07;;;5.30;99.90;;;;;;5032854;28;20108;-94
2021/12/29 04:07:59;;;;;;;16.58;8.27;;;5.30;99.90;;;;;;5033198;28;20090;-93
2021/12/29 04:10:25;;;;;;;13.65;8.07;;;5.30;99.90;;;;;;5032627;28;20033;-91
2021/12/29 04:12:51;;;;;;;18.08;8.13;;;5.30;99.90;;;;;;5032950;28;20052;-91
2021/12/29 04:15:17;;;;;;;15.18;8.48;;;5.30;99.90;;;;;;5032949;28;20022;-93
2021/12/29 04:17:45;;;;;;;17.30;8.07;;;5.30;99.90;;;;;;5033053;28;20048;-94
2021/12/29 04:22:56;;;;;;;14.45;7.43;;;5.30;99.90;;;;;;5038676;28;20067;-92
2021/12/29 04:25:24;;;;;;;18.98;8.30;;;5.30;99.90;;;;;;5042279;28;20033;-92
2021/12/29 04:27:56;;;;;;;14.35;8.30;;;5.30;99.90;;;;;;5051649;28;20424;-91
2021/12/29 04:30:23;;;;;;;14.68;7.88;;;5.30;99.90;;;;;;5050225;28;20061;-93
2021/12/29 04:32:52;;;;;;;19.33;8.77;;;5.30;99.90;;;;;;5049258;28;20018;-94
2021/12/29 04:35:18;;;;;;;15.73;9.63;;;5.20;99.90;;;;;;5040686;28;20051;-93
2021/12/29 04:37:44;;;;;;;15.85;8.98;;;5.20;99.90;;;;;;5036024;28;20049;-92
2021/12/29 04:40:10;;;;;;;20.05;8.93;;;5.20;99.90;;;;;;5036708;28;20021;-92
2021/12/29 04:42:35;;;;;;;14.93;9.38;;;5.20;99.90;;;;;;5035255;28;20034;-93
2021/12/29 04:45:02;;;;;;;15.30;8.02;;;5.20;99.90;;;;;;5034545;28;20026;-93
2021/12/29 04:47:29;;;;;;;16.08;9.00;;;5.10;99.90;;;;;;5034228;28;20033;-94
2021/12/29 04:50:00;;;;;;;22.13;9.63;;;5.10;99.90;;;;;;5033979;28;20025;-92
2021/12/29 04:52:27;;;;;;;17.92;9.10;;;5.10;99.90;;;;;;5034126;28;20030;-93
2021/12/29 04:54:52;;;;;;;12.23;7.50;;;5.10;99.90;;;;;;5033518;28;20029;-96
2021/12/29 04:57:18;;;;;;;19.02;9.15;;;5.10;99.90;;;;;;5033734;28;20470;-92
2021/12/29 04:59:44;;;;;;;18.98;8.38;;;5.10;99.90;;;;;;5034015;28;20071;-93
2021/12/29 05:02:10;;;;;;;18.45;9.93;;;5.20;99.90;;;;;;5034269;28;20018;-93
2021/12/29 05:04:45;;;;;;;17.88;9.23;;;5.20;99.90;;;;;;5034244;28;20479;-92
2021/12/29 05:09:57;;;;;;;24.05;9.90;;;5.10;99.90;;;;;;5034708;28;20509;-92
2021/12/29 05:12:23;;;;;;;19.05;9.52;;;5.10;99.90;;;;;;5033565;28;20120;-93
2021/12/29 05:14:49;;;;;;;19.73;9.48;;;5.20;99.90;;;;;;5033270;28;20065;-94
2021/12/29 05:17:15;;;;;;;20.60;10.45;;;5.20;99.90;;;;;;5033134;28;20127;-93
2021/12/29 05:19:40;;;;;;;16.13;7.63;;;5.20;99.90;;;;;;5033226;28;20025;-94
2021/12/29 05:22:06;;;;;;;32.45;9.57;;;5.20;99.90;;;;;;5033285;28;20060;-93
2021/12/29 05:24:32;;;;;;;16.48;9.27;;;5.20;99.90;;;;;;5033344;28;20029;-93
2021/12/29 05:26:58;;;;;;;19.60;10.07;;;5.20;99.90;;;;;;5032867;28;20027;-93
2021/12/29 05:29:24;;;;;;;21.20;10.65;;;5.30;99.90;;;;;;5032599;28;20049;-92
2021/12/29 05:31:49;;;;;;;19.02;9.13;;;5.30;99.90;;;;;;5032888;28;20029;-92
2021/12/29 05:34:15;;;;;;;20.10;9.85;;;5.30;99.90;;;;;;5032851;28;20067;-92
2021/12/29 05:36:41;;;;;;;19.25;10.10;;;5.30;99.90;;;;;;5036939;28;20056;-92
2021/12/29 05:39:08;;;;;;;26.17;11.35;;;5.30;99.90;;;;;;5038442;28;20033;-92
2021/12/29 05:41:33;;;;;;;16.48;9.40;;;5.30;99.90;;;;;;5038660;28;20044;-92
2021/12/29 05:43:59;;;;;;;19.13;11.68;;;5.30;99.90;;;;;;5035951;28;20494;-93
2021/12/29 05:46:25;;;;;;;21.38;9.80;;;5.30;99.90;;;;;;5033697;28;20022;-93
2021/12/29 05:48:51;;;;;;;15.00;9.40;;;5.20;99.90;;;;;;5036082;28;20053;-93
2021/12/29 05:51:16;;;;;;;21.35;10.65;;;5.20;99.90;;;;;;5032762;28;20557;-93
2021/12/29 05:53:42;;;;;;;20.98;10.55;;;5.20;99.90;;;;;;5032250;28;20056;-92
2021/12/29 05:56:09;;;;;;;19.67;10.88;;;5.20;99.90;;;;;;5032526;28;20033;-93
2021/12/29 05:58:36;;;;;;;20.83;11.20;;;5.20;99.90;;;;;;5031993;28;20021;-93
2021/12/29 06:01:03;;;;;;;22.20;11.23;;;5.20;99.90;;;;;;5032384;28;20108;-93
2021/12/29 06:03:29;;;;;;;24.83;11.35;;;5.20;99.90;;;;;;5032241;28;20033;-92
2021/12/29 06:05:55;;;;;;;24.95;12.20;;;5.20;99.90;;;;;;5033794;28;20030;-93
2021/12/29 06:08:22;;;;;;;22.02;11.90;;;5.30;99.90;;;;;;5035540;28;20044;-93
2021/12/29 06:10:48;;;;;;;17.90;10.27;;;5.20;99.90;;;;;;5035260;28;20037;-93
2021/12/29 06:13:13;;;;;;;22.13;11.07;;;5.20;99.90;;;;;;5036094;28;20037;-93
2021/12/29 06:15:39;;;;;;;22.60;11.77;;;5.20;99.90;;;;;;5041047;28;20025;-93
2021/12/29 06:18:05;;;;;;;19.50;10.48;;;5.20;99.90;;;;;;5041741;28;20060;-92
2021/12/29 06:20:31;;;;;;;29.23;12.05;;;5.20;99.90;;;;;;5038875;28;20041;-92
2021/12/29 06:22:57;;;;;;;22.90;11.43;;;5.30;99.90;;;;;;5036331;28;20053;-92
2021/12/29 06:25:23;;;;;;;28.77;13.40;;;5.30;99.90;;;;;;5037834;28;20029;-92
2021/12/29 06:27:50;;;;;;;23.55;11.63;;;5.40;99.90;;;;;;5035573;28;20088;-93
2021/12/29 06:30:17;;;;;;;21.63;12.02;;;5.40;99.90;;;;;;5041279;28;20053;-93
2021/12/29 06:32:44;;;;;;;22.73;12.63;;;5.40;99.90;;;;;;5041739;28;20022;-92
2021/12/29 06:35:13;;;;;;;30.20;12.43;;;5.40;99.90;;;;;;5041491;28;20507;-92
2021/12/29 06:37:39;;;;;;;26.67;12.05;;;5.40;99.90;;;;;;5039906;28;20049;-92
2021/12/29 06:40:06;;;;;;;25.02;11.73;;;5.40;99.90;;;;;;5041276;28;20032;-93
2021/12/29 06:42:32;;;;;;;25.92;12.88;;;5.50;99.90;;;;;;5041058;28;20052;-93
2021/12/29 06:44:57;;;;;;;28.55;13.95;;;5.50;99.90;;;;;;5036036;28;20026;-92
2021/12/29 06:47:26;;;;;;;24.52;11.63;;;5.50;99.90;;;;;;5041057;28;20025;-93
2021/12/29 06:49:52;;;;;;;25.63;12.80;;;5.50;99.90;;;;;;5041208;28;20102;-93
2021/12/29 06:52:18;;;;;;;31.90;13.73;;;5.50;99.90;;;;;;5041263;28;20037;-92
2021/12/29 06:54:46;;;;;;;26.35;14.23;;;5.60;99.90;;;;;;5040794;28;20028;-93
2021/12/29 06:57:12;;;;;;;35.55;15.60;;;5.60;99.90;;;;;;5041370;28;20541;-91
2021/12/29 06:59:38;;;;;;;35.08;16.17;;;5.60;99.90;;;;;;5038863;28;20452;-93
2021/12/29 07:02:04;;;;;;;38.65;16.08;;;5.60;99.90;;;;;;5034653;28;20037;-93
2021/12/29 07:04:30;;;;;;;37.55;18.25;;;5.70;99.90;;;;;;5034632;28;20053;-92
2021/12/29 07:06:56;;;;;;;35.10;16.45;;;5.70;99.90;;;;;;5034333;28;20506;-91
2021/12/29 07:09:22;;;;;;;46.17;19.50;;;5.80;99.90;;;;;;5034497;28;20056;-93
2021/12/29 07:11:48;;;;;;;37.65;16.00;;;5.90;99.90;;;;;;5034507;28;20046;-91
2021/12/29 07:14:14;;;;;;;33.17;16.73;;;6.00;99.90;;;;;;5034287;28;20030;-92
2021/12/29 07:16:44;;;;;;;34.60;16.08;;;6.00;99.90;;;;;;5035275;28;20060;-91
2021/12/29 07:19:11;;;;;;;33.80;15.27;;;6.10;99.90;;;;;;5040495;28;20021;-91
2021/12/29 07:21:37;;;;;;;36.30;15.52;;;6.10;99.90;;;;;;5040284;28;20033;-92
2021/12/29 07:24:03;;;;;;;27.77;14.98;;;6.10;99.90;;;;;;5040061;28;20032;-92
2021/12/29 07:26:29;;;;;;;32.80;14.63;;;6.10;99.90;;;;;;5039991;28;20021;-92
2021/12/29 07:28:56;;;;;;;27.83;13.05;;;6.10;99.90;;;;;;5037274;28;20411;-92
2021/12/29 07:31:22;;;;;;;29.20;13.73;;;6.10;99.90;;;;;;5040310;28;20124;-92
2021/12/29 07:33:48;;;;;;;32.70;13.65;;;6.00;99.90;;;;;;5040251;28;20053;-93
2021/12/29 07:36:14;;;;;;;29.27;12.30;;;6.00;99.90;;;;;;5039398;28;20033;-91
2021/12/29 07:38:41;;;;;;;28.15;12.40;;;6.00;99.90;;;;;;5044567;28;20060;-94
2021/12/29 07:41:08;;;;;;;25.42;12.13;;;6.00;99.90;;;;;;5042166;28;20431;-94
2021/12/29 07:43:35;;;;;;;20.10;10.30;;;6.00;99.90;;;;;;5039777;28;20127;-93
2021/12/29 07:46:02;;;;;;;23.98;11.57;;;6.00;99.90;;;;;;5039968;28;20491;-92
2021/12/29 07:48:30;;;;;;;23.60;11.02;;;6.00;99.90;;;;;;5037221;28;20525;-92
2021/12/29 07:50:56;;;;;;;28.88;12.73;;;6.00;99.90;;;;;;5033986;28;20043;-92
2021/12/29 07:53:22;;;;;;;29.10;11.70;;;6.00;99.90;;;;;;5033960;28;20026;-93
2021/12/29 07:55:48;;;;;;;24.88;10.70;;;6.00;99.90;;;;;;5036943;28;20029;-92
2021/12/29 07:58:14;;;;;;;24.90;11.68;;;6.00;99.90;;;;;;5039293;28;20032;-93
2021/12/29 08:00:41;;;;;;;24.45;11.27;;;6.00;99.90;;;;;;5038031;28;20304;-92
2021/12/29 08:03:07;;;;;;;21.42;9.88;;;6.00;99.90;;;;;;5033343;28;20025;-93
2021/12/29 08:05:33;;;;;;;23.80;9.88;;;6.10;99.90;;;;;;5036630;28;20036;-93
2021/12/29 08:07:58;;;;;;;26.60;11.02;;;6.10;99.90;;;;;;5039488;28;20398;-91
2021/12/29 08:10:24;;;;;;;20.05;9.75;;;6.10;99.90;;;;;;5039032;28;20041;-93
2021/12/29 08:12:50;;;;;;;20.95;9.00;;;6.10;99.90;;;;;;5038497;28;20021;-91
2021/12/29 08:15:17;;;;;;;19.08;9.40;;;6.20;99.90;;;;;;5033137;28;20026;-93
2021/12/29 08:17:44;;;;;;;20.27;9.30;;;6.20;99.90;;;;;;5037349;28;20021;-93
2021/12/29 08:20:10;;;;;;;18.17;8.45;;;6.20;99.90;;;;;;5035592;28;20029;-91
2021/12/29 08:22:36;;;;;;;21.83;7.63;;;6.20;99.90;;;;;;5032804;28;20029;-93
2021/12/29 08:25:02;;;;;;;25.27;10.10;;;6.20;99.90;;;;;;5032993;28;20029;-92
2021/12/29 08:27:27;;;;;;;22.45;8.35;;;6.30;99.90;;;;;;5032617;28;20024;-93
2021/12/29 08:29:53;;;;;;;20.52;9.43;;;6.30;99.90;;;;;;5032028;28;20037;-92
2021/12/29 08:32:20;;;;;;;17.70;7.72;;;6.30;99.90;;;;;;5032929;28;20033;-91
2021/12/29 08:34:46;;;;;;;25.42;8.55;;;6.40;99.90;;;;;;5032606;28;20474;-92
2021/12/29 08:37:12;;;;;;;24.73;9.38;;;6.40;99.90;;;;;;5032681;28;20075;-90
2021/12/29 08:39:38;;;;;;;20.08;7.53;;;6.40;99.90;;;;;;5032685;28;20036;-91
2021/12/29 08:42:03;;;;;;;13.60;6.88;;;6.40;99.90;;;;;;5032739;28;20030;-92
2021/12/29 08:44:29;;;;;;;18.27;8.20;;;6.50;99.90;;;;;;5032136;28;20025;-92
2021/12/29 08:46:55;;;;;;;17.50;7.45;;;6.50;99.90;;;;;;5032618;28;20037;-93
2021/12/29 08:49:21;;;;;;;18.92;7.47;;;6.50;99.90;;;;;;5032468;28;20025;-92
2021/12/29 08:51:46;;;;;;;21.95;8.07;;;6.50;99.90;;;;;;5032224;28;20030;-92
2021/12/29 08:54:12;;;;;;;16.83;7.63;;;6.50;99.90;;;;;;5032101;28;20096;-92
2021/12/29 08:56:38;;;;;;;14.30;6.97;;;6.50;99.90;;;;;;5032193;28;20030;-92
2021/12/29 08:59:04;;;;;;;15.32;7.60;;;6.50;99.90;;;;;;5032532;28;20030;-90
2021/12/29 09:01:31;;;;;;;13.27;6.43;;;6.50;99.90;;;;;;5032543;28;20036;-92
2021/12/29 09:03:57;;;;;;;13.50;6.85;;;6.60;99.90;;;;;;5036005;28;20029;-89
2021/12/29 09:06:22;;;;;;;15.63;6.90;;;6.60;99.90;;;;;;5032976;28;20021;-92
2021/12/29 09:08:48;;;;;;;15.80;6.68;;;6.60;99.90;;;;;;5033139;28;20114;-91
2021/12/29 09:11:14;;;;;;;10.73;4.70;;;6.60;99.90;;;;;;5033863;28;20069;-90
2021/12/29 09:13:41;;;;;;;13.07;5.10;;;6.60;99.90;;;;;;5044095;28;20127;-90
2021/12/29 09:16:07;;;;;;;8.05;4.63;;;6.60;99.90;;;;;;5050477;28;20089;-89
2021/12/29 09:18:35;;;;;;;9.18;4.55;;;6.60;99.90;;;;;;5049650;28;20025;-91
2021/12/29 09:21:13;;;;;;;7.30;3.58;;;6.60;99.90;;;;;;5038482;28;20056;-93
2021/12/29 09:23:39;;;;;;;6.20;3.25;;;6.70;99.90;;;;;;5035762;28;20386;-92
2021/12/29 09:26:06;;;;;;;6.80;3.75;;;6.70;99.90;;;;;;5032138;28;20120;-91
2021/12/29 09:28:32;;;;;;;4.95;3.20;;;6.70;99.90;;;;;;5032003;28;20037;-92
2021/12/29 09:30:58;;;;;;;9.20;4.25;;;6.80;99.90;;;;;;5033391;28;20037;-92
2021/12/29 09:33:23;;;;;;;6.30;3.55;;;6.80;99.90;;;;;;5033744;28;20103;-92
2021/12/29 09:36:01;;;;;;;5.55;2.47;;;6.80;99.90;;;;;;5034610;28;20059;-92
2021/12/29 09:38:27;;;;;;;5.10;2.88;;;6.80;99.90;;;;;;5031794;28;20067;-91
2021/12/29 09:40:53;;;;;;;4.85;2.70;;;6.90;99.90;;;;;;5035547;28;20029;-91
2021/12/29 09:43:20;;;;;;;7.88;2.05;;;6.90;99.90;;;;;;5035925;28;20033;-90
2021/12/29 09:45:47;;;;;;;4.47;1.50;;;7.00;99.90;;;;;;5035561;28;20032;-91
2021/12/29 09:48:13;;;;;;;3.55;1.98;;;7.00;99.90;;;;;;5037197;28;20100;-89
2021/12/29 09:50:40;;;;;;;3.00;1.42;;;7.10;99.90;;;;;;5037403;28;20042;-91
2021/12/29 09:53:07;;;;;;;0.93;0.82;;;7.10;99.90;;;;;;5035763;28;20071;-92
2021/12/29 09:55:34;;;;;;;3.17;1.25;;;7.20;99.90;;;;;;5035309;28;20025;-90
2021/12/29 09:58:01;;;;;;;1.92;1.17;;;7.20;99.90;;;;;;5035519;28;20030;-92
2021/12/29 10:00:31;;;;;;;1.10;1.00;;;7.20;99.90;;;;;;5035521;28;20451;-94
2021/12/29 10:02:59;;;;;;;1.15;0.80;;;7.30;99.90;;;;;;5035204;28;20026;-93
2021/12/29 10:05:28;;;;;;;0.60;0.50;;;7.30;99.90;;;;;;5035375;28;20390;-93
2021/12/29 10:08:14;;;;;;;0.88;0.70;;;7.30;99.90;;;;;;5035321;28;20431;-91
2021/12/29 10:10:44;;;;;;;1.48;0.50;;;7.40;99.90;;;;;;5035076;28;20120;-92
2021/12/29 10:13:10;;;;;;;0.77;0.50;;;7.40;99.90;;;;;;5035223;28;20033;-90
2021/12/29 10:15:43;;;;;;;1.02;0.30;;;7.40;99.90;;;;;;5035236;28;20080;-90
2021/12/29 10:18:13;;;;;;;0.57;0.43;;;7.50;99.90;;;;;;5035078;28;20488;-92
2021/12/29 10:20:54;;;;;;;0.70;0.50;;;7.60;99.90;;;;;;5035163;28;20052;-94
2021/12/29 10:23:26;;;;;;;0.98;0.50;;;7.60;99.90;;;;;;5036225;28;20057;-91
2021/12/29 10:25:54;;;;;;;0.63;0.60;;;7.70;99.90;;;;;;5035186;28;20029;-93
2021/12/29 10:28:28;;;;;;;0.55;0.52;;;7.70;99.90;;;;;;5035020;28;20026;-93
2021/12/29 10:30:58;;;;;;;0.82;0.70;;;7.80;99.90;;;;;;5034748;28;20115;-92
2021/12/29 10:33:23;;;;;;;0.77;0.75;;;7.80;99.90;;;;;;5034591;28;20360;-93
2021/12/29 10:35:49;;;;;;;1.58;0.98;;;7.90;99.90;;;;;;5034593;28;20030;-93
2021/12/29 10:38:25;;;;;;;1.58;1.30;;;7.90;99.90;;;;;;5034908;28;20033;-91
2021/12/29 10:40:51;;;;;;;1.45;1.25;;;8.00;99.90;;;;;;5034810;28;20029;-92
2021/12/29 10:43:17;;;;;;;1.88;1.40;;;8.00;99.90;;;;;;5034560;28;20029;-92
2021/12/29 10:45:49;;;;;;;2.70;1.77;;;8.00;99.90;;;;;;5034303;28;20025;-90
2021/12/29 10:48:20;;;;;;;2.60;1.67;;;8.10;99.90;;;;;;5034684;28;20112;-92
2021/12/29 10:51:07;;;;;;;1.80;1.40;;;8.10;99.90;;;;;;5041658;28;20406;-94
2021/12/29 10:53:36;;;;;;;4.35;2.40;;;8.10;99.90;;;;;;5035471;28;20029;-93
2021/12/29 10:56:02;;;;;;;1.98;1.70;;;8.10;99.90;;;;;;5035415;28;20102;-93
2021/12/29 10:58:31;;;;;;;2.67;1.80;;;8.20;99.90;;;;;;5035625;28;20120;-92
2021/12/29 11:01:07;;;;;;;3.47;2.03;;;8.30;99.90;;;;;;5035456;28;20026;-93
2021/12/29 11:03:35;;;;;;;3.03;2.30;;;8.30;99.90;;;;;;5035563;28;20486;-90
2021/12/29 11:06:03;;;;;;;3.47;1.70;;;8.40;99.90;;;;;;5035546;28;20108;-91
2021/12/29 11:08:32;;;;;;;2.25;1.70;;;8.40;99.90;;;;;;5035565;28;20121;-92
2021/12/29 11:11:06;;;;;;;2.63;1.83;;;8.50;99.90;;;;;;5034463;28;20034;-91
2021/12/29 11:13:32;;;;;;;2.50;1.75;;;8.60;99.90;;;;;;5034201;28;20029;-93
2021/12/29 11:16:00;;;;;;;1.80;1.35;;;8.70;99.90;;;;;;5034193;28;20029;-92
2021/12/29 11:18:26;;;;;;;2.58;1.92;;;8.70;99.90;;;;;;5034526;28;20074;-91
2021/12/29 11:20:56;;;;;;;2.80;1.83;;;8.70;99.90;;;;;;5034867;28;20025;-93
2021/12/29 11:23:22;;;;;;;2.00;1.75;;;8.80;99.90;;;;;;5034317;28;20022;-91
2021/12/29 11:25:50;;;;;;;2.58;1.58;;;8.80;99.90;;;;;;5034739;28;20029;-91
2021/12/29 11:28:30;;;;;;;1.35;1.20;;;8.90;99.90;;;;;;5033734;28;20029;-92
2021/12/29 11:30:59;;;;;;;1.38;1.20;;;9.00;99.90;;;;;;5033633;28;20053;-93
2021/12/29 11:33:30;;;;;;;1.42;0.95;;;9.00;99.90;;;;;;5033713;28;20030;-92
2021/12/29 11:35:56;;;;;;;1.40;1.20;;;9.00;99.90;;;;;;5033478;28;20029;-91
2021/12/29 11:38:23;;;;;;;0.95;0.85;;;9.10;99.90;;;;;;5033313;28;20494;-91
2021/12/29 11:40:57;;;;;;;1.15;1.00;;;9.20;99.90;;;;;;5033260;28;20144;-92
2021/12/29 11:43:23;;;;;;;1.73;1.10;;;9.30;99.90;;;;;;5034156;28;20026;-91
2021/12/29 11:45:53;;;;;;;1.20;1.10;;;9.30;99.90;;;;;;5033683;28;20080;-91
2021/12/29 11:48:23;;;;;;;1.27;0.95;;;9.40;99.90;;;;;;5033290;28;20030;-91
2021/12/29 11:50:56;;;;;;;;;;;9.50;99.90;;;;;;5034020;28;20044;-91
2021/12/29 11:53:47;;;;;;;1.50;0.90;;;9.60;99.90;;;;;;5033245;28;19905;-91
2021/12/29 11:56:19;;;;;;;1.98;0.95;;;9.70;99.90;;;;;;5033377;28;20387;-92
2021/12/29 11:58:46;;;;;;;7.32;3.15;;;9.80;99.90;;;;;;5033382;28;20029;-92
2021/12/29 12:01:19;;;;;;;7.15;2.75;;;9.90;99.90;;;;;;5033126;28;20025;-91
2021/12/29 12:03:55;;;;;;;7.93;2.65;;;10.00;99.90;;;;;;5033189;28;20087;-92
2021/12/29 12:06:42;;;;;;;5.30;2.47;;;10.00;99.90;;;;;;5033440;28;20017;-92
2021/12/29 12:09:12;;;;;;;8.57;2.95;;;10.20;99.90;;;;;;5033126;28;20034;-92
2021/12/29 12:12:00;;;;;;;6.45;2.63;;;10.30;99.90;;;;;;5032964;28;20080;-92
2021/12/29 12:14:30;;;;;;;4.22;2.30;;;10.40;99.90;;;;;;5032528;28;20057;-93
2021/12/29 12:17:19;;;;;;;3.40;1.50;;;10.50;99.90;;;;;;5035878;28;20045;-93
2021/12/29 12:19:46;;;;;;;4.20;1.75;;;10.70;99.90;;;;;;5033209;28;20084;-92
2021/12/29 12:22:18;;;;;;;3.63;1.23;;;10.80;99.90;;;;;;5032758;28;20125;-93
2021/12/29 12:24:50;;;;;;;4.97;1.13;;;10.90;99.90;;;;;;5033611;28;20017;-94
2021/12/29 12:27:26;;;;;;;6.22;1.25;;;11.10;99.90;;;;;;5046010;28;20037;-92
2021/12/29 12:30:11;;;;;;;6.93;1.55;;;11.20;99.90;;;;;;5036620;28;20041;-93
2021/12/29 12:32:47;;;;;;;10.32;1.85;;;11.30;99.90;;;;;;5032490;28;20029;-92
2021/12/29 12:35:36;;;;;;;5.05;1.15;;;11.40;99.90;;;;;;5032547;28;20057;-90
2021/12/29 12:38:34;;;;;;;8.20;2.00;;;11.50;99.90;;;;;;5036285;28;20025;-93
2021/12/29 12:41:18;;;;;;;8.93;2.40;;;11.60;99.90;;;;;;5028342;28;20052;-91
2021/12/29 12:44:00;;;;;;;10.60;2.53;;;11.80;99.90;;;;;;5032589;28;20288;-91
2021/12/29 12:46:39;;;;;;;14.77;2.15;;;11.90;99.90;;;;;;5032348;28;20033;-91
2021/12/29 12:49:25;;;;;;;14.18;2.90;;;12.00;99.90;;;;;;5032052;28;20116;-91
2021/12/29 12:52:02;;;;;;;16.58;3.70;;;12.10;99.90;;;;;;5032238;28;20040;-93
2021/12/29 12:54:33;;;;;;;13.55;3.00;;;12.20;99.90;;;;;;5032837;28;20036;-93
2021/12/29 12:57:00;;;;;;;10.23;2.72;;;12.30;99.90;;;;;;5033135;28;20036;-92